sensor_id;sensor_type;location;lat;lon;timestamp;pressure;altitude;pressure_sealevel;temperature;humidity
11499;BME280;5806;48.748;9.278;2023-04-26T00:02:05;101309.70;;;5.31;66.36
11499;BME280;5806;48.748;9.278;2023-04-26T00:04:32;101310.67;;;5.34;66.08
11499;BME280;5806;48.748;9.278;2023-04-26T00:07:00;101310.08;;;5.18;66.84
11499;BME280;5806;48.748;9.278;2023-04-26T00:09:29;101315.63;;;5.20;66.38
11499;BME280;5806;48.748;9.278;2023-04-26T00:11:57;101313.45;;;5.09;66.86
11499;BME280;5806;48.748;9.278;2023-04-26T00:14:24;101316.16;;;5.09;66.87
11499;BME280;5806;48.748;9.278;2023-04-26T00:16:52;101315.31;;;5.09;67.05
11499;BME280;5806;48.748;9.278;2023-04-26T00:19:19;101312.34;;;5.04;66.90
11499;BME280;5806;48.748;9.278;2023-04-26T00:21:47;101314.86;;;4.95;67.50
11499;BME280;5806;48.748;9.278;2023-04-26T00:24:15;101317.02;;;4.85;68.24
11499;BME280;5806;48.748;9.278;2023-04-26T00:26:43;101314.11;;;4.51;68.88
11499;BME280;5806;48.748;9.278;2023-04-26T00:29:12;101318.47;;;4.66;68.81
11499;BME280;5806;48.748;9.278;2023-04-26T00:31:39;101312.78;;;4.97;67.39
11499;BME280;5806;48.748;9.278;2023-04-26T00:34:07;101306.79;;;4.91;67.01
11499;BME280;5806;48.748;9.278;2023-04-26T00:36:34;101308.53;;;4.98;67.48
11499;BME280;5806;48.748;9.278;2023-04-26T00:39:02;101307.67;;;4.98;66.83
11499;BME280;5806;48.748;9.278;2023-04-26T00:41:29;101303.36;;;4.93;66.96
11499;BME280;5806;48.748;9.278;2023-04-26T00:43:57;101303.71;;;4.79;67.08
11499;BME280;5806;48.748;9.278;2023-04-26T00:46:25;101299.65;;;4.79;67.56
11499;BME280;5806;48.748;9.278;2023-04-26T00:48:54;101299.50;;;4.66;67.63
11499;BME280;5806;48.748;9.278;2023-04-26T00:51:22;101302.82;;;4.58;67.98
11499;BME280;5806;48.748;9.278;2023-04-26T00:53:50;101295.57;;;4.69;67.80
11499;BME280;5806;48.748;9.278;2023-04-26T00:56:18;101301.52;;;4.68;68.05
11499;BME280;5806;48.748;9.278;2023-04-26T00:58:47;101304.23;;;4.68;67.48
11499;BME280;5806;48.748;9.278;2023-04-26T01:01:15;101300.93;;;4.73;67.40
11499;BME280;5806;48.748;9.278;2023-04-26T01:03:42;101297.45;;;4.68;67.55
11499;BME280;5806;48.748;9.278;2023-04-26T01:06:12;101301.34;;;4.55;67.49
11499;BME280;5806;48.748;9.278;2023-04-26T01:08:39;101302.31;;;4.33;68.19
11499;BME280;5806;48.748;9.278;2023-04-26T01:11:07;101306.62;;;4.53;67.72
11499;BME280;5806;48.748;9.278;2023-04-26T01:13:35;101308.31;;;4.39;68.09
11499;BME280;5806;48.748;9.278;2023-04-26T01:16:04;101304.92;;;4.41;67.57
11499;BME280;5806;48.748;9.278;2023-04-26T01:18:34;101303.67;;;4.19;68.01
11499;BME280;5806;48.748;9.278;2023-04-26T01:21:02;101320.41;;;4.33;67.74
11499;BME280;5806;48.748;9.278;2023-04-26T01:23:32;101315.72;;;4.16;68.40
11499;BME280;5806;48.748;9.278;2023-04-26T01:25:59;101319.96;;;4.29;68.16
11499;BME280;5806;48.748;9.278;2023-04-26T01:28:27;101320.41;;;4.33;67.88
11499;BME280;5806;48.748;9.278;2023-04-26T01:30:54;101318.14;;;4.40;67.49
11499;BME280;5806;48.748;9.278;2023-04-26T01:33:22;101314.27;;;4.24;67.86
11499;BME280;5806;48.748;9.278;2023-04-26T01:35:49;101314.14;;;4.22;68.04
11499;BME280;5806;48.748;9.278;2023-04-26T01:38:17;101308.41;;;4.31;67.76
11499;BME280;5806;48.748;9.278;2023-04-26T01:40:45;101313.70;;;4.14;68.26
11499;BME280;5806;48.748;9.278;2023-04-26T01:43:12;101315.94;;;3.96;68.74
11499;BME280;5806;48.748;9.278;2023-04-26T01:45:40;101306.70;;;4.05;68.14
11499;BME280;5806;48.748;9.278;2023-04-26T01:48:08;101306.06;;;4.18;68.05
11499;BME280;5806;48.748;9.278;2023-04-26T01:50:36;101314.64;;;4.07;68.43
11499;BME280;5806;48.748;9.278;2023-04-26T01:53:03;101310.44;;;4.04;68.29
11499;BME280;5806;48.748;9.278;2023-04-26T01:55:31;101309.27;;;3.88;68.53
11499;BME280;5806;48.748;9.278;2023-04-26T01:57:59;101309.17;;;3.96;68.40
11499;BME280;5806;48.748;9.278;2023-04-26T02:00:28;101304.31;;;4.06;68.15
11499;BME280;5806;48.748;9.278;2023-04-26T02:02:56;101304.31;;;4.06;68.21
11499;BME280;5806;48.748;9.278;2023-04-26T02:05:23;101306.79;;;3.97;68.74
11499;BME280;5806;48.748;9.278;2023-04-26T02:07:51;101302.05;;;3.81;69.24
11499;BME280;5806;48.748;9.278;2023-04-26T02:10:19;101310.55;;;3.78;69.50
11499;BME280;5806;48.748;9.278;2023-04-26T02:12:46;101311.60;;;3.54;69.89
11499;BME280;5806;48.748;9.278;2023-04-26T02:15:14;101308.53;;;3.76;69.10
11499;BME280;5806;48.748;9.278;2023-04-26T02:17:42;101312.28;;;3.89;68.36
11499;BME280;5806;48.748;9.278;2023-04-26T02:20:10;101298.48;;;3.84;68.37
11499;BME280;5806;48.748;9.278;2023-04-26T02:22:38;101303.26;;;3.78;68.41
11499;BME280;5806;48.748;9.278;2023-04-26T02:25:06;101306.53;;;3.74;68.30
11499;BME280;5806;48.748;9.278;2023-04-26T02:27:33;101310.64;;;3.51;68.54
11499;BME280;5806;48.748;9.278;2023-04-26T02:30:01;101313.73;;;3.63;68.24
11499;BME280;5806;48.748;9.278;2023-04-26T02:32:29;101308.72;;;3.37;68.68
11499;BME280;5806;48.748;9.278;2023-04-26T02:34:56;101307.30;;;3.45;68.78
11499;BME280;5806;48.748;9.278;2023-04-26T02:37:24;101306.44;;;3.67;67.85
11499;BME280;5806;48.748;9.278;2023-04-26T02:39:52;101310.78;;;3.54;68.05
11499;BME280;5806;48.748;9.278;2023-04-26T02:42:20;101303.77;;;3.41;68.43
11499;BME280;5806;48.748;9.278;2023-04-26T02:44:47;101307.43;;;3.29;68.67
11499;BME280;5806;48.748;9.278;2023-04-26T02:47:15;101300.28;;;3.36;68.80
11499;BME280;5806;48.748;9.278;2023-04-26T02:49:42;101292.63;;;3.58;67.72
11499;BME280;5806;48.748;9.278;2023-04-26T02:52:10;101293.23;;;3.50;67.61
11499;BME280;5806;48.748;9.278;2023-04-26T02:54:37;101298.33;;;3.45;67.63
11499;BME280;5806;48.748;9.278;2023-04-26T02:57:05;101295.73;;;3.33;68.37
11499;BME280;5806;48.748;9.278;2023-04-26T02:59:33;101300.39;;;3.43;67.98
11499;BME280;5806;48.748;9.278;2023-04-26T03:02:01;101302.59;;;3.21;68.76
11499;BME280;5806;48.748;9.278;2023-04-26T03:04:30;101299.56;;;3.20;68.71
11499;BME280;5806;48.748;9.278;2023-04-26T03:06:57;101298.98;;;3.10;69.31
11499;BME280;5806;48.748;9.278;2023-04-26T03:09:25;101294.17;;;3.38;67.97
11499;BME280;5806;48.748;9.278;2023-04-26T03:11:52;101302.32;;;3.12;69.35
11499;BME280;5806;48.748;9.278;2023-04-26T03:14:20;101293.91;;;3.29;68.38
11499;BME280;5806;48.748;9.278;2023-04-26T03:16:48;101293.31;;;3.42;67.88
11499;BME280;5806;48.748;9.278;2023-04-26T03:19:15;101296.52;;;3.41;67.48
11499;BME280;5806;48.748;9.278;2023-04-26T03:21:43;101298.35;;;3.22;68.04
11499;BME280;5806;48.748;9.278;2023-04-26T03:24:10;101301.02;;;3.26;67.95
11499;BME280;5806;48.748;9.278;2023-04-26T03:26:38;101300.83;;;3.09;68.34
11499;BME280;5806;48.748;9.278;2023-04-26T03:29:06;101298.73;;;2.97;68.69
11499;BME280;5806;48.748;9.278;2023-04-26T03:31:33;101294.27;;;3.26;68.21
11499;BME280;5806;48.748;9.278;2023-04-26T03:34:01;101289.81;;;2.92;68.57
11499;BME280;5806;48.748;9.278;2023-04-26T03:36:29;101285.91;;;2.95;68.68
11499;BME280;5806;48.748;9.278;2023-04-26T03:38:56;101285.52;;;3.02;68.90
11499;BME280;5806;48.748;9.278;2023-04-26T03:41:24;101292.40;;;3.08;68.19
11499;BME280;5806;48.748;9.278;2023-04-26T03:43:51;101285.81;;;2.84;68.98
11499;BME280;5806;48.748;9.278;2023-04-26T03:46:19;101284.28;;;2.86;68.68
11499;BME280;5806;48.748;9.278;2023-04-26T03:48:46;101292.83;;;2.93;68.27
11499;BME280;5806;48.748;9.278;2023-04-26T03:51:14;101291.44;;;2.75;68.99
11499;BME280;5806;48.748;9.278;2023-04-26T03:53:41;101291.02;;;2.90;68.45
11499;BME280;5806;48.748;9.278;2023-04-26T03:56:10;101290.36;;;2.84;68.76
11499;BME280;5806;48.748;9.278;2023-04-26T03:58:38;101290.20;;;2.81;68.40
11499;BME280;5806;48.748;9.278;2023-04-26T04:01:05;101289.56;;;2.79;68.98
11499;BME280;5806;48.748;9.278;2023-04-26T04:03:33;101291.28;;;2.72;69.00
11499;BME280;5806;48.748;9.278;2023-04-26T04:06:01;101296.08;;;2.58;69.15
11499;BME280;5806;48.748;9.278;2023-04-26T04:08:29;101288.33;;;2.59;69.34
11499;BME280;5806;48.748;9.278;2023-04-26T04:10:58;101294.01;;;2.95;68.19
11499;BME280;5806;48.748;9.278;2023-04-26T04:13:25;101298.23;;;2.93;68.29
11499;BME280;5806;48.748;9.278;2023-04-26T04:15:53;101304.29;;;2.99;68.14
11499;BME280;5806;48.748;9.278;2023-04-26T04:18:20;101297.77;;;2.90;68.02
11499;BME280;5806;48.748;9.278;2023-04-26T04:20:48;101299.56;;;2.71;68.85
11499;BME280;5806;48.748;9.278;2023-04-26T04:23:15;101307.25;;;2.55;69.48
11499;BME280;5806;48.748;9.278;2023-04-26T04:25:43;101300.20;;;2.50;70.04
11499;BME280;5806;48.748;9.278;2023-04-26T04:28:13;101297.66;;;2.79;69.16
11499;BME280;5806;48.748;9.278;2023-04-26T04:30:41;101305.64;;;2.73;68.79
11499;BME280;5806;48.748;9.278;2023-04-26T04:33:09;101304.91;;;2.79;68.70
11499;BME280;5806;48.748;9.278;2023-04-26T04:35:37;101301.77;;;2.71;68.68
11499;BME280;5806;48.748;9.278;2023-04-26T04:38:06;101309.53;;;2.66;68.96
11499;BME280;5806;48.748;9.278;2023-04-26T04:40:34;101319.38;;;2.59;69.22
11499;BME280;5806;48.748;9.278;2023-04-26T04:43:02;101320.02;;;2.65;69.12
11499;BME280;5806;48.748;9.278;2023-04-26T04:45:29;101320.20;;;2.60;69.32
11499;BME280;5806;48.748;9.278;2023-04-26T04:47:57;101317.42;;;2.76;69.65
11499;BME280;5806;48.748;9.278;2023-04-26T04:50:24;101315.17;;;2.87;68.64
11499;BME280;5806;48.748;9.278;2023-04-26T04:52:52;101328.05;;;2.77;69.06
11499;BME280;5806;48.748;9.278;2023-04-26T04:55:19;101325.76;;;2.62;69.77
11499;BME280;5806;48.748;9.278;2023-04-26T04:57:46;101336.08;;;2.59;70.42
11499;BME280;5806;48.748;9.278;2023-04-26T05:00:15;101323.33;;;2.79;69.27
11499;BME280;5806;48.748;9.278;2023-04-26T05:02:42;101327.59;;;2.70;69.44
11499;BME280;5806;48.748;9.278;2023-04-26T05:05:10;101330.75;;;2.77;70.01
11499;BME280;5806;48.748;9.278;2023-04-26T05:07:37;101325.58;;;2.94;69.26
11499;BME280;5806;48.748;9.278;2023-04-26T05:10:05;101324.87;;;3.00;69.00
11499;BME280;5806;48.748;9.278;2023-04-26T05:12:33;101338.55;;;2.72;69.92
11499;BME280;5806;48.748;9.278;2023-04-26T05:15:00;101340.15;;;2.55;70.46
11499;BME280;5806;48.748;9.278;2023-04-26T05:17:28;101345.97;;;2.70;70.65
11499;BME280;5806;48.748;9.278;2023-04-26T05:19:57;101351.80;;;2.90;70.43
11499;BME280;5806;48.748;9.278;2023-04-26T05:22:26;101348.75;;;2.93;70.53
11499;BME280;5806;48.748;9.278;2023-04-26T05:24:53;101347.54;;;3.22;69.52
11499;BME280;5806;48.748;9.278;2023-04-26T05:27:21;101350.53;;;3.27;69.16
11499;BME280;5806;48.748;9.278;2023-04-26T05:29:48;101350.83;;;3.32;69.32
11499;BME280;5806;48.748;9.278;2023-04-26T05:32:16;101352.53;;;3.29;69.64
11499;BME280;5806;48.748;9.278;2023-04-26T05:34:43;101352.50;;;3.33;69.84
11499;BME280;5806;48.748;9.278;2023-04-26T05:37:11;101353.41;;;3.25;70.58
11499;BME280;5806;48.748;9.278;2023-04-26T05:39:38;101356.64;;;3.47;70.31
11499;BME280;5806;48.748;9.278;2023-04-26T05:42:05;101357.40;;;3.56;70.21
11499;BME280;5806;48.748;9.278;2023-04-26T05:44:33;101357.72;;;3.79;69.78
11499;BME280;5806;48.748;9.278;2023-04-26T05:47:01;101357.33;;;3.82;69.89
11499;BME280;5806;48.748;9.278;2023-04-26T05:49:28;101352.13;;;3.77;70.41
11499;BME280;5806;48.748;9.278;2023-04-26T05:51:58;101359.06;;;3.98;69.98
11499;BME280;5806;48.748;9.278;2023-04-26T05:54:26;101366.55;;;3.92;70.39
11499;BME280;5806;48.748;9.278;2023-04-26T05:56:53;101365.33;;;3.94;70.98
11499;BME280;5806;48.748;9.278;2023-04-26T05:59:20;101365.36;;;4.23;70.34
11499;BME280;5806;48.748;9.278;2023-04-26T06:01:48;101367.34;;;4.29;70.64
11499;BME280;5806;48.748;9.278;2023-04-26T06:04:15;101371.69;;;4.34;70.57
11499;BME280;5806;48.748;9.278;2023-04-26T06:06:43;101374.97;;;4.44;70.65
11499;BME280;5806;48.748;9.278;2023-04-26T06:09:10;101371.27;;;4.56;70.67
11499;BME280;5806;48.748;9.278;2023-04-26T06:11:38;101375.87;;;4.51;71.01
11499;BME280;5806;48.748;9.278;2023-04-26T06:14:05;101375.18;;;4.93;69.93
11499;BME280;5806;48.748;9.278;2023-04-26T06:16:33;101379.17;;;4.86;70.21
11499;BME280;5806;48.748;9.278;2023-04-26T06:19:00;101372.80;;;5.19;69.57
11499;BME280;5806;48.748;9.278;2023-04-26T06:21:28;101378.67;;;5.43;69.29
11499;BME280;5806;48.748;9.278;2023-04-26T06:23:55;101379.02;;;5.76;67.86
11499;BME280;5806;48.748;9.278;2023-04-26T06:26:22;101377.31;;;6.07;66.50
11499;BME280;5806;48.748;9.278;2023-04-26T06:28:50;101380.97;;;6.20;66.61
11499;BME280;5806;48.748;9.278;2023-04-26T06:31:17;101381.41;;;6.24;66.41
11499;BME280;5806;48.748;9.278;2023-04-26T06:33:46;101387.06;;;6.56;65.15
11499;BME280;5806;48.748;9.278;2023-04-26T06:36:14;101386.91;;;6.88;64.97
11499;BME280;5806;48.748;9.278;2023-04-26T06:38:42;101385.41;;;7.02;64.98
11499;BME280;5806;48.748;9.278;2023-04-26T06:41:09;101385.20;;;7.04;65.27
11499;BME280;5806;48.748;9.278;2023-04-26T06:43:37;101392.09;;;7.00;65.56
11499;BME280;5806;48.748;9.278;2023-04-26T06:46:05;101389.42;;;7.13;63.70
11499;BME280;5806;48.748;9.278;2023-04-26T06:48:33;101387.81;;;7.01;64.08
11499;BME280;5806;48.748;9.278;2023-04-26T06:51:05;101385.18;;;6.97;62.91
11499;BME280;5806;48.748;9.278;2023-04-26T06:53:35;101385.11;;;7.08;64.24
11499;BME280;5806;48.748;9.278;2023-04-26T06:56:03;101385.46;;;7.22;61.97
11499;BME280;5806;48.748;9.278;2023-04-26T06:58:30;101386.05;;;7.04;62.03
11499;BME280;5806;48.748;9.278;2023-04-26T07:00:58;101384.13;;;6.98;61.65
11499;BME280;5806;48.748;9.278;2023-04-26T07:03:26;101381.77;;;7.12;62.93
11499;BME280;5806;48.748;9.278;2023-04-26T07:05:54;101379.89;;;7.13;61.40
11499;BME280;5806;48.748;9.278;2023-04-26T07:08:22;101375.25;;;7.30;62.67
11499;BME280;5806;48.748;9.278;2023-04-26T07:10:50;101373.90;;;7.37;62.14
11499;BME280;5806;48.748;9.278;2023-04-26T07:13:17;101379.52;;;7.22;62.74
11499;BME280;5806;48.748;9.278;2023-04-26T07:15:45;101378.53;;;7.43;62.54
11499;BME280;5806;48.748;9.278;2023-04-26T07:18:12;101384.29;;;7.44;61.78
11499;BME280;5806;48.748;9.278;2023-04-26T07:20:40;101381.56;;;7.44;60.72
11499;BME280;5806;48.748;9.278;2023-04-26T07:23:07;101372.73;;;7.35;62.02
11499;BME280;5806;48.748;9.278;2023-04-26T07:25:35;101377.29;;;7.52;62.98
11499;BME280;5806;48.748;9.278;2023-04-26T07:28:02;101379.17;;;7.58;60.91
11499;BME280;5806;48.748;9.278;2023-04-26T07:30:30;101377.86;;;7.77;60.46
11499;BME280;5806;48.748;9.278;2023-04-26T07:32:58;101373.42;;;7.63;58.78
11499;BME280;5806;48.748;9.278;2023-04-26T07:35:26;101379.91;;;7.49;59.43
11499;BME280;5806;48.748;9.278;2023-04-26T07:37:53;101378.16;;;7.65;60.25
11499;BME280;5806;48.748;9.278;2023-04-26T07:40:21;101374.17;;;7.68;58.84
11499;BME280;5806;48.748;9.278;2023-04-26T07:42:51;101366.72;;;7.72;58.36
11499;BME280;5806;48.748;9.278;2023-04-26T07:45:19;101366.84;;;8.14;59.45
11499;BME280;5806;48.748;9.278;2023-04-26T07:47:47;101367.40;;;8.26;58.79
11499;BME280;5806;48.748;9.278;2023-04-26T07:50:15;101364.02;;;8.31;58.60
11499;BME280;5806;48.748;9.278;2023-04-26T07:52:42;101362.87;;;8.23;57.69
11499;BME280;5806;48.748;9.278;2023-04-26T07:55:10;101368.22;;;8.27;58.44
11499;BME280;5806;48.748;9.278;2023-04-26T07:57:37;101370.53;;;8.04;58.14
11499;BME280;5806;48.748;9.278;2023-04-26T08:00:07;101373.14;;;8.08;55.89
11499;BME280;5806;48.748;9.278;2023-04-26T08:02:36;101367.78;;;7.91;54.98
11499;BME280;5806;48.748;9.278;2023-04-26T08:05:04;101370.52;;;8.10;56.15
11499;BME280;5806;48.748;9.278;2023-04-26T08:07:31;101372.31;;;8.40;58.09
11499;BME280;5806;48.748;9.278;2023-04-26T08:09:59;101371.14;;;8.06;56.95
11499;BME280;5806;48.748;9.278;2023-04-26T08:12:26;101365.92;;;8.30;57.31
11499;BME280;5806;48.748;9.278;2023-04-26T08:14:54;101374.52;;;8.27;56.25
11499;BME280;5806;48.748;9.278;2023-04-26T08:17:21;101369.89;;;8.41;56.38
11499;BME280;5806;48.748;9.278;2023-04-26T08:19:48;101365.73;;;8.25;55.54
11499;BME280;5806;48.748;9.278;2023-04-26T08:22:16;101357.42;;;8.36;56.88
11499;BME280;5806;48.748;9.278;2023-04-26T08:24:48;101358.95;;;8.54;56.22
11499;BME280;5806;48.748;9.278;2023-04-26T08:27:19;101362.11;;;8.44;55.35
11499;BME280;5806;48.748;9.278;2023-04-26T08:29:46;101359.92;;;8.44;55.04
11499;BME280;5806;48.748;9.278;2023-04-26T08:32:14;101368.43;;;8.38;54.99
11499;BME280;5806;48.748;9.278;2023-04-26T08:34:41;101371.14;;;8.45;56.49
11499;BME280;5806;48.748;9.278;2023-04-26T08:37:10;101362.94;;;8.51;55.81
11499;BME280;5806;48.748;9.278;2023-04-26T08:39:37;101360.02;;;8.33;55.68
11499;BME280;5806;48.748;9.278;2023-04-26T08:42:15;101360.73;;;8.51;54.04
11499;BME280;5806;48.748;9.278;2023-04-26T08:44:44;101363.52;;;8.25;52.40
11499;BME280;5806;48.748;9.278;2023-04-26T08:47:29;101369.36;;;8.35;51.45
11499;BME280;5806;48.748;9.278;2023-04-26T08:49:58;101370.92;;;8.33;48.86
11499;BME280;5806;48.748;9.278;2023-04-26T08:52:30;101371.06;;;8.36;48.38
11499;BME280;5806;48.748;9.278;2023-04-26T08:54:59;101372.06;;;8.41;49.45
11499;BME280;5806;48.748;9.278;2023-04-26T08:57:26;101368.84;;;8.35;50.71
11499;BME280;5806;48.748;9.278;2023-04-26T08:59:56;101364.38;;;8.60;51.18
11499;BME280;5806;48.748;9.278;2023-04-26T09:02:24;101362.30;;;8.62;50.74
11499;BME280;5806;48.748;9.278;2023-04-26T09:04:51;101363.45;;;8.51;50.53
11499;BME280;5806;48.748;9.278;2023-04-26T09:07:45;101367.52;;;8.57;49.36
11499;BME280;5806;48.748;9.278;2023-04-26T09:09:54;101359.27;;;8.48;50.46
11499;BME280;5806;48.748;9.278;2023-04-26T09:12:23;101358.20;;;8.62;51.22
11499;BME280;5806;48.748;9.278;2023-04-26T09:14:50;101359.81;;;8.76;50.57
11499;BME280;5806;48.748;9.278;2023-04-26T09:17:29;101367.95;;;8.89;50.48
11499;BME280;5806;48.748;9.278;2023-04-26T09:19:57;101363.02;;;8.95;49.94
11499;BME280;5806;48.748;9.278;2023-04-26T09:22:33;101361.63;;;8.67;51.22
11499;BME280;5806;48.748;9.278;2023-04-26T09:25:03;101363.13;;;8.91;51.67
11499;BME280;5806;48.748;9.278;2023-04-26T09:27:35;101365.44;;;8.94;50.24
11499;BME280;5806;48.748;9.278;2023-04-26T09:30:22;101366.13;;;8.99;51.42
11499;BME280;5806;48.748;9.278;2023-04-26T09:32:56;101363.77;;;8.87;51.83
11499;BME280;5806;48.748;9.278;2023-04-26T09:38:09;101358.38;;;9.02;51.46
11499;BME280;5806;48.748;9.278;2023-04-26T09:43:31;101359.28;;;9.05;49.65
11499;BME280;5806;48.748;9.278;2023-04-26T09:46:00;101354.03;;;9.04;49.26
11499;BME280;5806;48.748;9.278;2023-04-26T09:48:33;101356.25;;;9.04;48.47
11499;BME280;5806;48.748;9.278;2023-04-26T09:51:08;101349.27;;;9.15;47.29
11499;BME280;5806;48.748;9.278;2023-04-26T09:53:47;101346.52;;;8.99;44.18
11499;BME280;5806;48.748;9.278;2023-04-26T09:56:18;101341.06;;;8.99;45.53
11499;BME280;5806;48.748;9.278;2023-04-26T09:58:56;101337.41;;;9.12;45.11
11499;BME280;5806;48.748;9.278;2023-04-26T10:01:27;101337.84;;;9.31;46.66
11499;BME280;5806;48.748;9.278;2023-04-26T10:03:56;101333.44;;;9.30;47.79
11499;BME280;5806;48.748;9.278;2023-04-26T10:06:24;101337.32;;;9.31;46.41
11499;BME280;5806;48.748;9.278;2023-04-26T10:08:53;101329.22;;;9.18;46.02
11499;BME280;5806;48.748;9.278;2023-04-26T10:11:22;101333.23;;;9.09;45.75
11499;BME280;5806;48.748;9.278;2023-04-26T10:13:50;101331.98;;;9.43;45.56
11499;BME280;5806;48.748;9.278;2023-04-26T10:16:19;101330.32;;;9.42;43.78
11499;BME280;5806;48.748;9.278;2023-04-26T10:18:47;101326.22;;;9.42;44.68
11499;BME280;5806;48.748;9.278;2023-04-26T10:21:19;101328.83;;;9.46;44.37
11499;BME280;5806;48.748;9.278;2023-04-26T10:23:47;101326.69;;;9.48;45.41
11499;BME280;5806;48.748;9.278;2023-04-26T10:26:52;101328.98;;;9.51;46.35
11499;BME280;5806;48.748;9.278;2023-04-26T10:29:23;101323.66;;;9.47;46.74
11499;BME280;5806;48.748;9.278;2023-04-26T10:34:33;101315.89;;;9.50;45.56
11499;BME280;5806;48.748;9.278;2023-04-26T10:39:40;101314.27;;;9.92;46.43
11499;BME280;5806;48.748;9.278;2023-04-26T10:42:30;101312.42;;;9.77;46.33
11499;BME280;5806;48.748;9.278;2023-04-26T10:45:01;101313.61;;;9.96;45.70
11499;BME280;5806;48.748;9.278;2023-04-26T10:47:30;101311.94;;;9.95;45.51
11499;BME280;5806;48.748;9.278;2023-04-26T10:50:07;101309.44;;;9.78;45.05
11499;BME280;5806;48.748;9.278;2023-04-26T10:52:36;101301.77;;;9.69;43.67
11499;BME280;5806;48.748;9.278;2023-04-26T10:55:04;101302.16;;;9.97;44.19
11499;BME280;5806;48.748;9.278;2023-04-26T10:57:49;101299.89;;;10.28;44.13
11499;BME280;5806;48.748;9.278;2023-04-26T11:00:25;101297.07;;;10.52;42.73
11499;BME280;5806;48.748;9.278;2023-04-26T11:02:55;101299.90;;;10.64;41.98
11499;BME280;5806;48.748;9.278;2023-04-26T11:05:47;101304.73;;;10.71;40.29
11499;BME280;5806;48.748;9.278;2023-04-26T11:08:19;101301.57;;;10.56;40.41
11499;BME280;5806;48.748;9.278;2023-04-26T11:11:12;101299.73;;;10.41;43.79
11499;BME280;5806;48.748;9.278;2023-04-26T11:13:19;101305.27;;;10.79;44.26
11499;BME280;5806;48.748;9.278;2023-04-26T11:15:51;101301.79;;;10.63;43.38
11499;BME280;5806;48.748;9.278;2023-04-26T11:18:18;101302.83;;;10.80;43.23
11499;BME280;5806;48.748;9.278;2023-04-26T11:20:46;101294.42;;;10.73;42.84
11499;BME280;5806;48.748;9.278;2023-04-26T11:23:14;101295.09;;;10.86;44.31
11499;BME280;5806;48.748;9.278;2023-04-26T11:25:43;101293.34;;;10.74;43.12
11499;BME280;5806;48.748;9.278;2023-04-26T11:28:11;101288.33;;;10.62;42.74
11499;BME280;5806;48.748;9.278;2023-04-26T11:30:39;101283.09;;;10.60;45.02
11499;BME280;5806;48.748;9.278;2023-04-26T11:33:14;101284.78;;;10.25;43.90
11499;BME280;5806;48.748;9.278;2023-04-26T11:35:37;101292.53;;;10.46;43.57
11499;BME280;5806;48.748;9.278;2023-04-26T11:38:05;101279.44;;;10.57;43.51
11499;BME280;5806;48.748;9.278;2023-04-26T11:40:33;101283.54;;;10.75;43.60
11499;BME280;5806;48.748;9.278;2023-04-26T11:43:07;101286.44;;;10.71;43.46
11499;BME280;5806;48.748;9.278;2023-04-26T11:45:36;101272.69;;;10.69;41.23
11499;BME280;5806;48.748;9.278;2023-04-26T11:48:09;101269.56;;;10.56;43.79
11499;BME280;5806;48.748;9.278;2023-04-26T11:50:37;101273.45;;;10.58;43.72
11499;BME280;5806;48.748;9.278;2023-04-26T11:53:07;101277.45;;;10.73;44.24
11499;BME280;5806;48.748;9.278;2023-04-26T11:55:35;101257.49;;;10.46;42.94
11499;BME280;5806;48.748;9.278;2023-04-26T11:58:11;101272.29;;;10.65;42.92
11499;BME280;5806;48.748;9.278;2023-04-26T12:01:01;101270.40;;;10.66;42.23
11499;BME280;5806;48.748;9.278;2023-04-26T12:03:09;101265.77;;;10.66;42.78
11499;BME280;5806;48.748;9.278;2023-04-26T12:05:36;101264.50;;;10.89;43.47
11499;BME280;5806;48.748;9.278;2023-04-26T12:08:04;101275.80;;;10.63;41.24
11499;BME280;5806;48.748;9.278;2023-04-26T12:10:37;101270.42;;;10.48;41.52
11499;BME280;5806;48.748;9.278;2023-04-26T12:13:02;101265.45;;;10.65;43.52
11499;BME280;5806;48.748;9.278;2023-04-26T12:15:32;101269.72;;;10.70;43.17
11499;BME280;5806;48.748;9.278;2023-04-26T12:18:05;101262.77;;;10.86;43.42
11499;BME280;5806;48.748;9.278;2023-04-26T12:20:36;101272.53;;;10.55;42.01
11499;BME280;5806;48.748;9.278;2023-04-26T12:23:09;101276.92;;;10.74;43.77
11499;BME280;5806;48.748;9.278;2023-04-26T12:25:38;101277.57;;;10.96;43.00
11499;BME280;5806;48.748;9.278;2023-04-26T12:28:10;101277.45;;;10.73;42.89
11499;BME280;5806;48.748;9.278;2023-04-26T12:30:39;101278.97;;;10.69;41.60
11499;BME280;5806;48.748;9.278;2023-04-26T12:33:06;101274.03;;;10.78;43.04
11499;BME280;5806;48.748;9.278;2023-04-26T12:35:34;101274.39;;;10.81;42.36
11499;BME280;5806;48.748;9.278;2023-04-26T12:38:01;101265.34;;;10.90;43.47
11499;BME280;5806;48.748;9.278;2023-04-26T12:40:29;101273.01;;;11.20;42.93
11499;BME280;5806;48.748;9.278;2023-04-26T12:42:57;101272.23;;;11.01;41.58
11499;BME280;5806;48.748;9.278;2023-04-26T12:45:25;101274.37;;;10.99;40.23
11499;BME280;5806;48.748;9.278;2023-04-26T12:47:54;101275.77;;;10.90;40.96
11499;BME280;5806;48.748;9.278;2023-04-26T12:50:22;101274.97;;;11.10;43.03
11499;BME280;5806;48.748;9.278;2023-04-26T12:52:50;101265.00;;;11.07;41.02
11499;BME280;5806;48.748;9.278;2023-04-26T12:55:17;101264.17;;;10.97;40.65
11499;BME280;5806;48.748;9.278;2023-04-26T12:57:45;101266.46;;;11.00;40.97
11499;BME280;5806;48.748;9.278;2023-04-26T13:00:14;101262.55;;;11.08;41.61
11499;BME280;5806;48.748;9.278;2023-04-26T13:02:46;101265.55;;;11.06;41.08
11499;BME280;5806;48.748;9.278;2023-04-26T13:05:14;101258.45;;;11.08;42.44
11499;BME280;5806;48.748;9.278;2023-04-26T13:07:42;101261.28;;;11.01;40.55
11499;BME280;5806;48.748;9.278;2023-04-26T13:10:10;101269.06;;;10.95;41.17
11499;BME280;5806;48.748;9.278;2023-04-26T13:12:38;101253.98;;;11.04;41.29
11499;BME280;5806;48.748;9.278;2023-04-26T13:15:06;101256.02;;;10.79;41.08
11499;BME280;5806;48.748;9.278;2023-04-26T13:17:36;101251.63;;;10.78;40.42
11499;BME280;5806;48.748;9.278;2023-04-26T13:20:04;101256.91;;;11.12;42.62
11499;BME280;5806;48.748;9.278;2023-04-26T13:22:33;101246.64;;;11.16;40.81
11499;BME280;5806;48.748;9.278;2023-04-26T13:25:00;101250.00;;;11.18;40.19
11499;BME280;5806;48.748;9.278;2023-04-26T13:27:28;101242.72;;;11.33;39.87
11499;BME280;5806;48.748;9.278;2023-04-26T13:29:56;101245.69;;;11.31;39.21